createdAt,value
2022-11-17T00:02:15.123Z,7.72
2022-11-17T00:04:41.829Z,8.57
2022-11-17T00:07:08.543Z,8.35
2022-11-17T00:09:36.746Z,8.90
2022-11-17T00:12:22.477Z,9.05
2022-11-17T00:14:49.580Z,7.78
2022-11-17T00:17:16.206Z,8.43
2022-11-17T00:19:58.513Z,8.15
2022-11-17T00:22:25.799Z,8.95
2022-11-17T00:24:52.637Z,7.57
2022-11-17T00:27:19.340Z,8.32
2022-11-17T00:29:45.991Z,7.43
2022-11-17T00:32:29.873Z,8.93
2022-11-17T00:34:56.630Z,7.90
2022-11-17T00:37:23.507Z,8.40
2022-11-17T00:39:50.174Z,9.25
2022-11-17T00:42:16.832Z,9.10
2022-11-17T00:44:43.535Z,7.70
2022-11-17T00:47:10.809Z,8.85
2022-11-17T00:49:37.464Z,8.88
2022-11-17T00:52:04.332Z,9.13
2022-11-17T00:54:30.955Z,9.57
2022-11-17T00:56:57.571Z,9.40
2022-11-17T00:59:24.267Z,9.38
2022-11-17T01:01:51.247Z,9.75
2022-11-17T01:04:18.070Z,9.32
2022-11-17T01:06:47.476Z,9.43
2022-11-17T01:09:17.237Z,10.15
2022-11-17T01:11:44.226Z,10.45
2022-11-17T01:14:15.704Z,11.02
2022-11-17T01:16:42.690Z,11.07
2022-11-17T01:19:15.641Z,11.30
2022-11-17T01:21:42.846Z,11.10
2022-11-17T01:24:11.580Z,10.70
2022-11-17T01:26:39.104Z,11.18
2022-11-17T01:29:07.391Z,12.00
2022-11-17T01:31:36.811Z,11.98
2022-11-17T01:34:04.079Z,11.20
2022-11-17T01:36:48.837Z,12.10
2022-11-17T01:39:15.550Z,12.40
2022-11-17T01:41:42.181Z,13.38
2022-11-17T01:44:39.257Z,12.45
2022-11-17T01:47:18.616Z,12.15
2022-11-17T01:49:46.661Z,11.93
2022-11-17T01:52:13.801Z,10.93
2022-11-17T01:54:46.790Z,10.30
2022-11-17T01:57:20.030Z,11.00
2022-11-17T01:59:52.481Z,10.93
2022-11-17T02:02:20.475Z,11.27
2022-11-17T02:04:54.166Z,12.50
2022-11-17T02:07:32.030Z,12.75
2022-11-17T02:10:00.956Z,11.95
2022-11-17T02:12:31.223Z,11.90
2022-11-17T02:14:58.664Z,13.65
2022-11-17T02:17:33.817Z,12.90
2022-11-17T02:20:08.953Z,14.18
2022-11-17T02:22:51.805Z,13.23
2022-11-17T02:25:33.597Z,12.48
2022-11-17T02:28:27.304Z,12.70
2022-11-17T02:31:21.033Z,13.48
2022-11-17T02:33:59.943Z,13.30
2022-11-17T02:36:47.089Z,13.23
2022-11-17T02:39:23.238Z,12.27
2022-11-17T02:42:15.718Z,14.45
2022-11-17T02:44:53.358Z,13.07
2022-11-17T02:47:32.986Z,12.90
2022-11-17T02:50:05.768Z,13.07
2022-11-17T02:52:33.582Z,14.27
2022-11-17T02:55:02.869Z,14.20
2022-11-17T02:57:32.492Z,14.52
2022-11-17T03:00:02.277Z,16.35
2022-11-17T03:02:36.405Z,15.77
2022-11-17T03:05:19.374Z,17.00
2022-11-17T03:08:16.567Z,16.88
2022-11-17T03:10:44.153Z,16.98
2022-11-17T03:13:31.506Z,17.30
2022-11-17T03:16:10.753Z,16.88
2022-11-17T03:18:44.361Z,16.67
2022-11-17T03:21:26.208Z,16.13
2022-11-17T03:24:07.943Z,15.98
2022-11-17T03:26:38.238Z,16.50
2022-11-17T03:29:08.602Z,17.08
2022-11-17T03:31:37.468Z,17.48
2022-11-17T03:34:08.763Z,16.60
2022-11-17T03:36:39.772Z,18.38
2022-11-17T03:39:13.614Z,18.20
2022-11-17T03:41:45.503Z,18.77
2022-11-17T03:44:14.830Z,20.00
2022-11-17T03:46:44.477Z,18.90
2022-11-17T03:49:26.306Z,18.40
2022-11-17T03:51:53.207Z,18.27
2022-11-17T03:54:20.108Z,19.10
2022-11-17T03:56:52.898Z,20.58
2022-11-17T03:59:51.864Z,18.60
2022-11-17T04:02:20.464Z,18.42
2022-11-17T04:05:02.513Z,18.15
2022-11-17T04:07:29.229Z,18.30
2022-11-17T04:09:55.906Z,19.25
2022-11-17T04:12:37.952Z,20.73
2022-11-17T04:15:20.466Z,20.63
2022-11-17T04:17:47.210Z,18.58
2022-11-17T04:20:13.862Z,19.75
2022-11-17T04:22:40.520Z,19.13
2022-11-17T04:25:07.681Z,18.27
2022-11-17T04:27:49.605Z,19.67
2022-11-17T04:30:16.275Z,18.50
2022-11-17T04:32:42.930Z,17.10
2022-11-17T04:35:09.624Z,19.08
2022-11-17T04:37:36.239Z,17.77
2022-11-17T04:40:03.182Z,16.42
2022-11-17T04:42:29.772Z,16.67
2022-11-17T04:44:56.436Z,17.27
2022-11-17T04:47:23.108Z,17.98
2022-11-17T04:49:49.755Z,17.33
2022-11-17T04:52:16.445Z,17.73
2022-11-17T04:54:43.068Z,17.52
2022-11-17T04:57:09.747Z,17.23
2022-11-17T04:59:36.791Z,15.43
2022-11-17T05:02:06.084Z,17.55
2022-11-17T05:04:48.319Z,15.52
2022-11-17T05:07:14.983Z,16.58
2022-11-17T05:09:41.647Z,14.95
2022-11-17T05:12:24.786Z,15.75
2022-11-17T05:14:52.419Z,13.75
2022-11-17T05:17:19.091Z,15.80
2022-11-17T05:19:49.053Z,15.60
2022-11-17T05:22:35.599Z,15.65
2022-11-17T05:25:02.465Z,16.33
2022-11-17T05:27:29.290Z,18.02
2022-11-17T05:29:56.045Z,15.77
2022-11-17T05:32:22.789Z,14.55
2022-11-17T05:34:49.454Z,14.90
2022-11-17T05:37:16.227Z,15.85
2022-11-17T05:39:42.895Z,15.43
2022-11-17T05:42:10.204Z,15.60
2022-11-17T05:44:36.866Z,14.55
2022-11-17T05:47:03.505Z,16.83
2022-11-17T05:49:33.370Z,15.43
2022-11-17T05:52:00.051Z,16.02
2022-11-17T05:54:27.045Z,16.70
2022-11-17T05:56:58.363Z,16.85
2022-11-17T05:59:44.133Z,16.70
2022-11-17T06:02:17.699Z,16.88
2022-11-17T06:04:46.281Z,14.43
2022-11-17T06:07:12.998Z,16.65
2022-11-17T06:09:41.919Z,16.25
2022-11-17T06:12:09.152Z,15.18
2022-11-17T06:14:37.681Z,13.45
2022-11-17T06:17:11.815Z,13.18
2022-11-17T06:19:44.129Z,14.55
2022-11-17T06:22:12.780Z,14.35
2022-11-17T06:24:42.008Z,14.63
2022-11-17T06:27:10.781Z,14.32
2022-11-17T06:29:43.658Z,14.45
2022-11-17T06:32:13.897Z,15.05
2022-11-17T06:34:42.329Z,15.50
2022-11-17T06:37:09.061Z,17.15
2022-11-17T06:39:35.708Z,14.98
2022-11-17T06:42:02.352Z,15.13
2022-11-17T06:44:28.974Z,14.85
2022-11-17T06:46:55.604Z,17.08
2022-11-17T06:49:22.271Z,15.80
2022-11-17T06:51:48.881Z,17.08
2022-11-17T06:54:15.624Z,16.33
2022-11-17T06:56:42.571Z,16.08
2022-11-17T06:59:09.311Z,18.83
2022-11-17T07:01:37.702Z,22.77
2022-11-17T07:04:04.784Z,22.13
2022-11-17T07:06:32.232Z,21.88
2022-11-17T07:08:58.872Z,21.25
2022-11-17T07:11:25.605Z,19.75
2022-11-17T07:13:52.273Z,18.45
2022-11-17T07:16:23.728Z,17.20
2022-11-17T07:18:52.323Z,17.23
2022-11-17T07:21:19.340Z,16.15
2022-11-17T07:23:46.294Z,14.40
2022-11-17T07:26:13.279Z,13.85
2022-11-17T07:28:39.944Z,13.98
2022-11-17T07:31:08.773Z,13.60
2022-11-17T07:33:36.408Z,13.77
2022-11-17T07:36:05.815Z,13.85
2022-11-17T07:38:34.603Z,14.93
2022-11-17T07:41:01.964Z,13.57
2022-11-17T07:43:29.133Z,15.68
2022-11-17T07:45:55.926Z,17.10
2022-11-17T07:48:22.926Z,16.70
2022-11-17T07:50:49.839Z,16.45
2022-11-17T07:53:16.535Z,17.17
2022-11-17T07:55:43.232Z,16.70
2022-11-17T07:58:09.974Z,17.42
2022-11-17T08:00:36.768Z,18.58
2022-11-17T08:03:04.760Z,18.00
2022-11-17T08:05:41.533Z,18.52
2022-11-17T08:08:10.003Z,19.30
2022-11-17T08:10:36.798Z,18.90
2022-11-17T08:13:04.064Z,18.67
2022-11-17T08:15:31.383Z,19.15
2022-11-17T08:18:00.203Z,20.33
2022-11-17T08:20:29.351Z,21.55
2022-11-17T08:22:56.883Z,20.05
2022-11-17T08:25:25.764Z,21.52
2022-11-17T08:27:59.771Z,20.08
2022-11-17T08:30:27.140Z,19.85
2022-11-17T08:32:54.786Z,21.10
2022-11-17T08:35:24.729Z,19.98
2022-11-17T08:37:52.566Z,19.70
2022-11-17T08:40:20.023Z,21.08
2022-11-17T08:42:47.140Z,20.63
2022-11-17T08:45:14.398Z,21.63
2022-11-17T08:47:41.459Z,23.35
2022-11-17T08:50:08.890Z,22.50
2022-11-17T08:52:35.589Z,23.25
2022-11-17T08:55:02.807Z,22.10
2022-11-17T08:57:30.638Z,20.88
2022-11-17T08:59:57.678Z,22.30
2022-11-17T09:02:24.932Z,22.35
2022-11-17T09:04:51.719Z,21.80
2022-11-17T09:07:18.476Z,21.05
2022-11-17T09:09:46.412Z,21.88
2022-11-17T09:12:13.125Z,19.65
2022-11-17T09:14:39.783Z,17.67
2022-11-17T09:17:06.729Z,18.27
2022-11-17T09:19:33.600Z,16.42
2022-11-17T09:22:03.461Z,17.50
2022-11-17T09:24:30.087Z,15.18
2022-11-17T09:26:57.574Z,17.45
2022-11-17T09:29:24.423Z,17.40
2022-11-17T09:31:51.108Z,17.35
2022-11-17T09:34:17.949Z,16.10
2022-11-17T09:36:44.744Z,16.50
2022-11-17T09:39:11.421Z,15.20
2022-11-17T09:41:45.167Z,15.93
2022-11-17T09:44:18.201Z,15.77
2022-11-17T09:47:01.226Z,16.05
2022-11-17T09:49:43.088Z,16.75
2022-11-17T09:52:25.783Z,15.63
2022-11-17T09:54:57.061Z,16.92
2022-11-17T09:57:35.278Z,15.88
2022-11-17T10:00:07.732Z,15.85
2022-11-17T10:02:34.609Z,15.73
2022-11-17T10:05:01.612Z,17.15
2022-11-17T10:07:31.692Z,15.93
2022-11-17T10:10:00.900Z,15.45
2022-11-17T10:12:34.777Z,15.23
2022-11-17T10:15:21.014Z,16.88
2022-11-17T10:17:47.897Z,16.55
2022-11-17T10:20:17.400Z,16.70
2022-11-17T10:22:46.336Z,16.40
2022-11-17T10:25:37.795Z,17.55
2022-11-17T10:28:06.816Z,17.60
2022-11-17T10:30:33.548Z,16.45
2022-11-17T10:33:02.457Z,17.70
2022-11-17T10:35:30.796Z,17.00
2022-11-17T10:38:21.097Z,17.25
2022-11-17T10:40:50.873Z,17.08
2022-11-17T10:43:27.478Z,16.35
2022-11-17T10:45:54.091Z,17.40
2022-11-17T10:48:37.083Z,17.70
2022-11-17T10:51:09.243Z,17.58
2022-11-17T10:53:46.241Z,16.30
2022-11-17T10:56:17.847Z,15.10
2022-11-17T10:59:00.145Z,16.10
2022-11-17T11:01:30.950Z,15.13
2022-11-17T11:03:57.727Z,15.45
2022-11-17T11:06:28.232Z,14.85
2022-11-17T11:09:10.155Z,14.48
2022-11-17T11:11:46.945Z,15.02
2022-11-17T11:14:44.016Z,15.70
2022-11-17T11:17:13.631Z,16.95
2022-11-17T11:19:42.331Z,21.90
2022-11-17T11:22:08.952Z,25.55
2022-11-17T11:24:55.174Z,26.10
2022-11-17T11:27:52.396Z,25.80
2022-11-17T11:30:19.942Z,21.25
2022-11-17T11:33:17.295Z,19.13
2022-11-17T11:38:59.106Z,13.73
2022-11-17T11:41:40.099Z,13.65
2022-11-17T11:44:21.033Z,13.80
2022-11-17T11:47:22.856Z,13.95
2022-11-17T11:50:15.103Z,15.20
2022-11-17T11:52:48.972Z,14.43
2022-11-17T11:55:32.026Z,14.63
2022-11-17T11:58:08.875Z,14.20
2022-11-17T12:00:35.788Z,14.40
2022-11-17T12:03:19.659Z,13.48
2022-11-17T12:06:32.127Z,13.30
2022-11-17T12:09:09.894Z,13.18
2022-11-17T12:11:55.236Z,15.13
2022-11-17T12:14:21.993Z,14.23
2022-11-17T12:16:48.888Z,14.90
2022-11-17T12:19:46.097Z,12.80
2022-11-17T12:22:29.081Z,12.82
2022-11-17T12:24:58.228Z,12.05
2022-11-17T12:27:40.920Z,12.65
2022-11-17T12:30:38.244Z,12.30
2022-11-17T12:38:16.504Z,11.68
2022-11-17T12:40:46.896Z,12.57
2022-11-17T12:43:26.168Z,11.27
2022-11-17T12:45:52.925Z,12.02
2022-11-17T12:48:33.401Z,12.05
2022-11-17T12:51:10.727Z,12.68
2022-11-17T12:53:37.403Z,11.60
2022-11-17T12:56:14.001Z,12.05
2022-11-17T12:58:55.998Z,11.38
2022-11-17T13:01:53.061Z,10.98
2022-11-17T13:04:43.856Z,11.27
2022-11-17T13:07:25.867Z,11.15
2022-11-17T13:09:57.066Z,11.10
2022-11-17T13:12:26.461Z,11.50
2022-11-17T13:14:55.092Z,11.18
2022-11-17T13:17:29.592Z,11.25
2022-11-17T13:19:59.759Z,11.50
2022-11-17T13:22:30.088Z,12.15
2022-11-17T13:24:57.897Z,11.65
2022-11-17T13:27:27.347Z,11.80
2022-11-17T13:30:25.580Z,12.27
2022-11-17T13:32:52.634Z,13.48
2022-11-17T13:35:35.512Z,11.70
2022-11-17T13:38:05.887Z,11.55
2022-11-17T13:40:34.926Z,11.88
2022-11-17T13:43:03.645Z,13.48
2022-11-17T13:45:30.731Z,12.63
2022-11-17T13:47:59.465Z,13.05
2022-11-17T13:50:30.892Z,12.05
2022-11-17T13:52:58.598Z,12.13
2022-11-17T13:55:26.308Z,11.45
2022-11-17T13:57:58.941Z,11.93
2022-11-17T14:00:26.510Z,12.48
2022-11-17T14:02:56.256Z,11.18
2022-11-17T14:05:25.846Z,11.88
2022-11-17T14:07:54.598Z,11.73
2022-11-17T14:10:21.367Z,12.60
2022-11-17T14:12:51.711Z,12.20
2022-11-17T14:15:28.958Z,13.13
2022-11-17T14:17:58.076Z,12.98
2022-11-17T14:20:24.752Z,14.20
2022-11-17T14:23:08.599Z,14.70
2022-11-17T14:25:38.656Z,14.45
2022-11-17T14:28:12.082Z,14.73
2022-11-17T14:30:38.749Z,13.68
2022-11-17T14:33:10.509Z,13.23
2022-11-17T14:35:40.032Z,14.43
2022-11-17T14:38:09.350Z,13.57
2022-11-17T14:40:36.017Z,13.18
2022-11-17T14:43:02.754Z,13.80
2022-11-17T14:45:29.863Z,13.02
2022-11-17T14:47:56.550Z,12.98
2022-11-17T14:50:23.238Z,12.05
2022-11-17T14:52:49.872Z,12.30
2022-11-17T14:55:16.662Z,13.27
2022-11-17T14:57:43.377Z,13.52
2022-11-17T15:00:14.536Z,13.40
2022-11-17T15:02:43.379Z,12.95
2022-11-17T15:05:10.814Z,14.13
2022-11-17T15:07:38.296Z,13.18
2022-11-17T15:10:06.895Z,13.18
2022-11-17T15:12:33.575Z,11.98
2022-11-17T15:15:00.455Z,13.00
2022-11-17T15:17:28.293Z,14.05
2022-11-17T15:19:55.173Z,14.10
2022-11-17T15:22:21.989Z,13.27
2022-11-17T15:24:48.700Z,13.63
2022-11-17T15:27:15.975Z,12.00
2022-11-17T15:29:42.643Z,12.63
2022-11-17T15:32:09.386Z,12.50
2022-11-17T15:34:36.079Z,12.20
2022-11-17T15:37:02.956Z,13.30
2022-11-17T15:39:30.658Z,12.85
2022-11-17T15:41:57.451Z,12.48
2022-11-17T15:44:24.505Z,13.85
2022-11-17T15:46:51.284Z,13.98
2022-11-17T15:49:18.324Z,14.88
2022-11-17T15:51:45.520Z,18.67
2022-11-17T15:54:18.532Z,18.15
2022-11-17T15:56:48.008Z,23.40
2022-11-17T15:59:15.123Z,20.17
2022-11-17T16:01:42.105Z,20.65
2022-11-17T16:04:12.082Z,19.23
2022-11-17T16:06:41.265Z,19.20
2022-11-17T16:09:09.063Z,16.25
2022-11-17T16:11:36.425Z,16.05
2022-11-17T16:14:03.584Z,15.57
2022-11-17T16:16:39.531Z,15.97
2022-11-17T16:19:06.487Z,16.67
2022-11-17T16:21:33.530Z,14.88
2022-11-17T16:24:01.030Z,14.85
2022-11-17T16:26:29.032Z,15.27
2022-11-17T16:28:57.627Z,16.58
2022-11-17T16:31:26.151Z,17.10
2022-11-17T16:33:55.671Z,18.65
2022-11-17T16:36:31.345Z,16.45
2022-11-17T16:39:02.598Z,17.75
2022-11-17T16:41:36.682Z,19.13
2022-11-17T16:44:08.426Z,21.02
2022-11-17T16:46:35.529Z,20.20
2022-11-17T16:49:05.188Z,18.13
2022-11-17T16:51:32.624Z,18.95
2022-11-17T16:54:02.274Z,15.93
2022-11-17T16:56:29.877Z,16.25
2022-11-17T16:58:56.670Z,17.58
2022-11-17T17:01:26.513Z,20.65
2022-11-17T17:03:57.965Z,17.35
2022-11-17T17:06:24.977Z,19.83
2022-11-17T17:08:55.821Z,21.00
2022-11-17T17:11:23.103Z,18.98
2022-11-17T17:13:50.086Z,17.38
2022-11-17T17:16:19.309Z,16.42
2022-11-17T17:18:46.003Z,17.33
2022-11-17T17:21:16.591Z,16.35
2022-11-17T17:23:46.496Z,17.02
2022-11-17T17:26:16.830Z,16.88
2022-11-17T17:28:45.295Z,14.80
2022-11-17T17:31:19.629Z,15.32
2022-11-17T17:33:48.365Z,15.25
2022-11-17T17:36:17.893Z,15.85
2022-11-17T17:38:47.807Z,15.98
2022-11-17T17:41:20.090Z,15.13
2022-11-17T17:43:53.646Z,15.88
2022-11-17T17:46:20.321Z,15.75
2022-11-17T17:48:47.034Z,14.13
2022-11-17T17:51:19.812Z,15.48
2022-11-17T17:53:50.191Z,14.95
2022-11-17T17:56:19.040Z,15.68
2022-11-17T17:58:48.816Z,14.82
2022-11-17T18:01:15.993Z,15.70
2022-11-17T18:03:45.949Z,15.27
2022-11-17T18:06:14.312Z,15.93
2022-11-17T18:08:41.111Z,16.15
2022-11-17T18:11:12.515Z,15.18
2022-11-17T18:13:42.412Z,15.65
2022-11-17T18:16:12.467Z,16.48
2022-11-17T18:18:40.049Z,16.40
2022-11-17T18:21:09.166Z,16.15
2022-11-17T18:23:36.553Z,17.15
2022-11-17T18:26:16.421Z,18.13
2022-11-17T18:28:49.116Z,16.33
2022-11-17T18:31:15.746Z,18.65
2022-11-17T18:33:45.307Z,17.85
2022-11-17T18:36:12.294Z,17.73
2022-11-17T18:38:39.184Z,17.17
2022-11-17T18:41:06.899Z,16.23
2022-11-17T18:43:34.074Z,16.10
2022-11-17T18:46:03.161Z,17.27
2022-11-17T18:48:32.492Z,17.45
2022-11-17T18:51:18.669Z,17.38
2022-11-17T18:56:16.332Z,16.58
2022-11-17T18:58:43.314Z,18.33
2022-11-17T19:01:14.802Z,16.90
2022-11-17T19:03:43.337Z,17.67
2022-11-17T19:06:11.661Z,17.90
2022-11-17T19:08:38.704Z,19.08
2022-11-17T19:11:08.488Z,19.13
2022-11-17T19:13:37.588Z,18.60
2022-11-17T19:16:08.434Z,19.00
2022-11-17T19:18:35.851Z,22.63
2022-11-17T19:21:06.273Z,20.88
2022-11-17T19:23:34.757Z,18.55
2022-11-17T19:26:05.409Z,19.55
2022-11-17T19:28:33.095Z,18.25
2022-11-17T19:31:02.062Z,18.05
2022-11-17T19:33:30.718Z,17.90
2022-11-17T19:35:57.498Z,19.00
2022-11-17T19:38:24.243Z,17.65
2022-11-17T19:40:50.900Z,18.33
2022-11-17T19:43:20.300Z,19.38
2022-11-17T19:45:47.104Z,20.10
2022-11-17T19:48:13.752Z,20.05
2022-11-17T19:50:40.409Z,20.25
2022-11-17T19:53:07.097Z,19.45
2022-11-17T19:55:34.808Z,19.33
2022-11-17T19:58:01.506Z,18.75
2022-11-17T20:00:28.104Z,16.50
2022-11-17T20:02:54.775Z,17.15
2022-11-17T20:05:21.442Z,18.00
2022-11-17T20:07:48.134Z,17.10
2022-11-17T20:10:14.796Z,17.05
2022-11-17T20:12:43.412Z,18.75
2022-11-17T20:15:27.044Z,17.98
2022-11-17T20:17:57.183Z,15.13
2022-11-17T20:20:23.921Z,16.15
2022-11-17T20:22:50.692Z,16.17
2022-11-17T20:25:17.380Z,17.48
2022-11-17T20:27:44.033Z,17.73
2022-11-17T20:30:15.115Z,17.55
2022-11-17T20:32:42.110Z,15.50
2022-11-17T20:35:09.132Z,15.80
2022-11-17T20:37:35.969Z,15.30
2022-11-17T20:40:02.744Z,15.95
2022-11-17T20:42:29.423Z,15.85
2022-11-17T20:44:56.074Z,13.05
2022-11-17T20:47:27.483Z,14.32
2022-11-17T20:49:55.311Z,14.27
2022-11-17T20:52:22.016Z,15.00
2022-11-17T20:54:49.901Z,15.25
2022-11-17T20:57:16.766Z,16.63
2022-11-17T20:59:44.023Z,15.15
2022-11-17T21:02:11.715Z,16.15
2022-11-17T21:04:38.627Z,16.70
2022-11-17T21:07:05.431Z,15.57
2022-11-17T21:09:32.210Z,15.85
2022-11-17T21:11:59.101Z,15.77
2022-11-17T21:14:27.213Z,12.68
2022-11-17T21:16:56.287Z,12.43
2022-11-17T21:19:23.784Z,12.02
2022-11-17T21:21:51.841Z,11.82
2022-11-17T21:24:22.842Z,12.10
2022-11-17T21:26:51.871Z,13.10
2022-11-17T21:29:18.758Z,13.82
2022-11-17T21:31:45.637Z,13.55
2022-11-17T21:34:16.649Z,15.07
2022-11-17T21:36:43.797Z,14.45
2022-11-17T21:39:16.940Z,19.48
2022-11-17T21:41:44.060Z,18.08
2022-11-17T21:44:13.002Z,17.17
2022-11-17T21:46:39.777Z,14.85
2022-11-17T21:49:06.487Z,15.98
2022-11-17T21:51:38.891Z,15.38
2022-11-17T21:54:08.517Z,15.80
2022-11-17T21:56:36.163Z,15.13
2022-11-17T21:59:06.419Z,14.38
2022-11-17T22:01:34.042Z,14.73
2022-11-17T22:04:00.835Z,15.18
2022-11-17T22:06:28.247Z,14.40
2022-11-17T22:08:56.071Z,15.57
2022-11-17T22:11:40.660Z,16.38
2022-11-17T22:14:13.770Z,15.32
2022-11-17T22:16:45.673Z,16.30
2022-11-17T22:19:14.184Z,17.33
2022-11-17T22:21:41.571Z,15.93
2022-11-17T22:24:10.188Z,15.00
2022-11-17T22:26:38.598Z,14.52
2022-11-17T22:29:08.024Z,15.57
2022-11-17T22:31:34.826Z,14.32
2022-11-17T22:34:01.500Z,14.32
2022-11-17T22:36:28.125Z,14.88
2022-11-17T22:38:54.870Z,14.07
2022-11-17T22:41:23.347Z,14.82
2022-11-17T22:43:51.372Z,13.48
2022-11-17T22:46:19.677Z,15.13
2022-11-17T22:48:46.678Z,15.90
2022-11-17T22:51:34.232Z,15.60
2022-11-17T22:54:01.009Z,15.50
2022-11-17T22:56:27.763Z,14.82
2022-11-17T22:58:59.497Z,14.43
2022-11-17T23:01:26.722Z,13.15
2022-11-17T23:03:53.436Z,13.52
2022-11-17T23:06:21.305Z,13.00
2022-11-17T23:08:48.062Z,12.57
2022-11-17T23:11:35.975Z,13.40
2022-11-17T23:14:01.591Z,13.30
2022-11-17T23:16:28.294Z,13.40
2022-11-17T23:18:55.745Z,14.50
2022-11-17T23:21:23.675Z,14.25
2022-11-17T23:23:51.154Z,13.65
2022-11-17T23:26:20.650Z,15.00
2022-11-17T23:28:47.334Z,17.15
2022-11-17T23:31:16.332Z,16.83
2022-11-17T23:33:45.236Z,16.63
2022-11-17T23:36:14.661Z,15.23
2022-11-17T23:38:41.505Z,12.93
2022-11-17T23:41:10.660Z,12.52
2022-11-17T23:43:37.257Z,12.05
2022-11-17T23:46:07.417Z,13.45
2022-11-17T23:48:34.155Z,12.90
2022-11-17T23:51:05.965Z,14.65
2022-11-17T23:53:33.488Z,13.10
2022-11-17T23:56:01.032Z,12.85
2022-11-17T23:58:28.290Z,11.73
